Newport, NH

8:48 PM EST on November 26, 2014 (GMT -0500)
East Unity, N. H. | Change Station
CLOSE
Current Station
Personal Weather Station
Location: Unity, NH
Elevation: 1384 ft
Nearby Weather Stations
Active Advisory: Winter Storm Warning Active Notice: Public Information Statement

Elev 1384 ft 43.29 °N, 72.19 °W | Updated 3 seconds ago

Snow
Snow
29.1 °F
Feels Like 29 °F
N
2.0
Wind Variable Wind from NNE
Gusts 11.0 mph

Today
High -- | Low -- °F
--% Chance of Precip.
Yesterday
High -- | Low -- °F
Precip. -- in
6:55 AM 4:16 PM
Waxing Crescent, 24% visible
Pressure 29.89 in
Visibility 2.0 miles
Clouds Overcast 1800 ft
Windchill 29 °F
Dew Point 28 °F
Humidity 96%
Rainfall 0.60 in
Snow Depth Not available.
UV 0 out of 12
Pollen .10 out of 12
Air Quality Not available.
Flu Activity Not available.
SPECI KVSF 270127Z AUTO VRB06KT 2SM -SN BR OVC018 M01/M02 A2989 RMK AO2 P0002 T10061022

More Conditions Fewer Conditions

Pressure 29.89 in
Visibility 2.0 miles
Clouds Overcast 1800 ft
Windchill 29 °F
Dew Point 28 °F
Humidity 96%
Rainfall 0.60 in
Snow Depth Not available.
UV 0 out of 12
Pollen .10 out of 12
Air Quality Not available.
Flu Activity Not available.
SPECI KVSF 270127Z AUTO VRB06KT 2SM -SN BR OVC018 M01/M02 A2989 RMK AO2 P0002 T10061022

More Conditions Fewer Conditions

10-Day Weather Forecast

Almanac

Astronomy

Nov. 26, 2014 Rise Set
Actual Time
Civil Twilight
Nautical Twilight
Astronomical Twilight
Moon
Length of Visible Light
Length of Day
Tomorrow will be .
, % of the Moon is Illuminated

Today's Extremes

State Highs State Lows

Community

WunderPhotos

Upload Photos

1,773,940 photos uploaded!

WunderBlogs® & News

Nearby

Air Quality

  Air Quality AQ Index Pollutant
Not available.

Snow Depth

Station Depth Elevation

Earthquake Activity

City Distance Mag. Time & Date
Minimum magnitude displayed is 2.5.

Coastal Water Temperatures

Place Temperature

Nearby Weather Stations